Time;durP1;ratioP1;P1;durP2;ratioP2;P2;SDS_P1;SDS_P2;PMS_P1;PMS_P2;Temp;Humidity;BMP_temperature;BMP_pressure;BME280_temperature;BME280_humidity;BME280_pressure;Samples;Min_cycle;Max_cycle;Signal;HPM_P1;HPM_P2
2023/10/17 00:01:46;;;;;;;2.43;1.57;;;;;;;;;;10344897;28;20976;-86
2023/10/17 00:06:50;;;;;;;3.03;1.65;;;;;;;;;;10358203;28;20442;-85
2023/10/17 00:12:03;;;;;;;3.53;1.65;;;;;;;;;;10339132;28;20407;-86
2023/10/17 00:17:05;;;;;;;3.30;1.42;;;;;;;;;;10354426;28;20409;-85
2023/10/17 00:22:09;;;;;;;1.95;1.10;;;;;;;;;;10349178;28;20530;-86
2023/10/17 00:27:13;;;;;;;2.25;1.13;;;;;;;;;;10345548;28;20399;-86
2023/10/17 00:32:15;;;;;;;2.17;1.33;;;;;;;;;;10352747;28;20453;-86
2023/10/17 00:37:19;;;;;;;2.95;1.15;;;;;;;;;;10359018;28;20408;-86
2023/10/17 00:42:29;;;;;;;1.93;1.23;;;;;;;;;;10346455;28;20463;-86
2023/10/17 00:47:32;;;;;;;2.53;1.00;;;;;;;;;;10352954;28;20405;-84
2023/10/17 00:52:34;;;;;;;2.38;0.90;;;;;;;;;;10361907;28;20423;-85
2023/10/17 00:57:39;;;;;;;1.27;1.00;;;;;;;;;;10356283;28;20411;-86
2023/10/17 01:02:45;;;;;;;2.08;1.10;;;;;;;;;;10339881;28;20503;-84
2023/10/17 01:07:48;;;;;;;1.13;0.90;;;;;;;;;;10357194;28;20882;-86
2023/10/17 01:12:53;;;;;;;2.97;1.00;;;;;;;;;;10350993;28;20415;-86
2023/10/17 01:17:57;;;;;;;1.10;0.90;;;;;;;;;;10361713;28;20404;-86
2023/10/17 01:23:00;;;;;;;1.20;0.90;;;;;;;;;;10376760;28;20431;-86
2023/10/17 01:28:06;;;;;;;1.10;1.00;;;;;;;;;;10353633;28;20421;-86
2023/10/17 01:33:08;;;;;;;1.77;1.00;;;;;;;;;;10350090;28;20407;-86
2023/10/17 01:38:13;;;;;;;1.77;1.10;;;;;;;;;;10351132;28;20473;-86
2023/10/17 01:43:16;;;;;;;1.30;0.90;;;;;;;;;;10348086;28;20783;-85
2023/10/17 01:48:21;;;;;;;1.45;1.10;;;;;;;;;;10347325;28;20407;-86
2023/10/17 01:53:23;;;;;;;2.53;1.20;;;;;;;;;;10361902;28;20781;-86
2023/10/17 01:58:29;;;;;;;3.28;1.10;;;;;;;;;;10350769;28;20439;-86
2023/10/17 02:03:31;;;;;;;2.05;1.40;;;;;;;;;;10350835;28;20425;-85
2023/10/17 02:08:36;;;;;;;2.38;1.25;;;;;;;;;;10360992;28;20959;-85
2023/10/17 02:13:41;;;;;;;2.42;1.38;;;;;;;;;;10356491;28;20415;-86
2023/10/17 02:18:44;;;;;;;2.45;1.40;;;;;;;;;;10337296;28;20497;-86
2023/10/17 02:23:50;;;;;;;3.08;1.33;;;;;;;;;;10358112;28;20789;-85
2023/10/17 02:28:54;;;;;;;6.65;1.60;;;;;;;;;;10350248;28;20436;-84
2023/10/17 02:33:57;;;;;;;3.90;1.40;;;;;;;;;;10346834;28;20446;-86
2023/10/17 02:38:59;;;;;;;1.60;1.20;;;;;;;;;;10349227;28;20478;-85
2023/10/17 02:44:03;;;;;;;4.13;1.35;;;;;;;;;;10343452;28;20881;-86
2023/10/17 02:49:07;;;;;;;1.33;1.23;;;;;;;;;;10347689;28;20427;-86
2023/10/17 02:54:12;;;;;;;2.05;1.27;;;;;;;;;;10362918;28;20454;-85
2023/10/17 02:59:17;;;;;;;2.37;1.43;;;;;;;;;;10364700;28;20411;-85
2023/10/17 03:04:23;;;;;;;1.70;1.30;;;;;;;;;;10367927;28;20911;-85
2023/10/17 03:09:37;;;;;;;2.05;1.63;;;;;;;;;;10353349;28;20467;-86
2023/10/17 03:15:17;;;;;;;2.57;1.37;;;;;;;;;;10345901;28;20400;-85
2023/10/17 03:20:09;;;;;;;3.85;1.60;;;;;;;;;;10344407;28;20403;-85
2023/10/17 03:25:20;;;;;;;2.65;1.90;;;;;;;;;;10368220;28;20406;-86
2023/10/17 03:30:24;;;;;;;3.78;1.60;;;;;;;;;;10338868;28;20397;-86
2023/10/17 03:35:29;;;;;;;2.22;1.70;;;;;;;;;;10338031;28;20405;-87
2023/10/17 03:40:36;;;;;;;2.47;1.85;;;;;;;;;;10352020;28;20974;-86
2023/10/17 03:45:52;;;;;;;2.42;1.60;;;;;;;;;;10344957;28;20444;-87
2023/10/17 03:51:08;;;;;;;3.33;1.73;;;;;;;;;;10344617;28;20469;-87
2023/10/17 03:56:18;;;;;;;2.97;1.80;;;;;;;;;;10338921;28;20412;-86
2023/10/17 04:01:24;;;;;;;2.53;1.67;;;;;;;;;;10360564;28;20449;-87
2023/10/17 04:06:39;;;;;;;2.90;1.70;;;;;;;;;;10360399;28;20521;-86
2023/10/17 04:11:43;;;;;;;2.83;1.98;;;;;;;;;;10354623;28;20407;-86
2023/10/17 04:16:48;;;;;;;3.72;2.10;;;;;;;;;;10352533;28;20473;-86
2023/10/17 04:22:01;;;;;;;2.25;1.90;;;;;;;;;;10353974;28;20460;-87
2023/10/17 04:27:19;;;;;;;3.13;2.00;;;;;;;;;;10371777;28;20411;-87
2023/10/17 04:32:26;;;;;;;2.65;1.75;;;;;;;;;;10353877;28;20437;-86
2023/10/17 04:37:34;;;;;;;3.30;1.92;;;;;;;;;;10358642;28;20415;-86
2023/10/17 04:42:47;;;;;;;4.33;2.23;;;;;;;;;;10352165;28;20512;-86
2023/10/17 04:48:10;;;;;;;2.72;1.73;;;;;;;;;;10359272;28;20781;-85
2023/10/17 04:53:19;;;;;;;2.73;1.73;;;;;;;;;;10367192;28;20409;-87
2023/10/17 04:58:39;;;;;;;6.93;2.13;;;;;;;;;;10340252;28;20405;-87
2023/10/17 05:03:50;;;;;;;3.58;2.22;;;;;;;;;;10357481;28;20546;-88
2023/10/17 05:09:12;;;;;;;2.42;1.90;;;;;;;;;;10356536;28;20467;-87
2023/10/17 06:18:27;;;;;;;6.03;3.27;;;;;;;;;;10341805;28;20936;-88
2023/10/17 06:29:54;;;;;;;10.90;3.50;;;;;;;;;;10352445;28;20450;-86
2023/10/17 06:34:14;;;;;;;5.97;2.88;;;;;;;;;;10346742;28;20451;-86
2023/10/17 06:39:19;;;;;;;5.90;3.20;;;;;;;;;;10355631;28;20479;-87
2023/10/17 06:44:22;;;;;;;5.30;2.83;;;;;;;;;;10351445;28;20419;-86
2023/10/17 06:54:50;;;;;;;6.28;2.78;;;;;;;;;;10397949;22;20891;-80
2023/10/17 07:00:01;;;;;;;6.20;2.60;;;;;;;;;;10393594;28;20435;-79
2023/10/17 07:05:04;;;;;;;5.72;2.42;;;;;;;;;;10388885;28;20445;-80
2023/10/17 07:10:17;;;;;;;3.28;2.17;;;;;;;;;;10382837;28;20515;-79
2023/10/17 07:15:19;;;;;;;4.30;2.10;;;;;;;;;;10388923;28;20466;-80
2023/10/17 07:21:14;;;;;;;3.15;1.92;;;;;;;;;;10386636;28;20922;-80
2023/10/17 07:25:56;;;;;;;3.92;1.92;;;;;;;;;;10384011;28;20904;-80
2023/10/17 07:31:00;;;;;;;3.87;1.80;;;;;;;;;;10381211;28;20503;-80
2023/10/17 07:36:05;;;;;;;5.43;2.10;;;;;;;;;;10382574;28;20479;-80
2023/10/17 07:41:12;;;;;;;3.60;1.80;;;;;;;;;;10388430;28;20432;-80
2023/10/17 07:46:18;;;;;;;2.13;1.60;;;;;;;;;;10388629;28;20494;-80
2023/10/17 07:51:22;;;;;;;2.83;1.27;;;;;;;;;;10392138;28;20491;-80
2023/10/17 07:56:26;;;;;;;1.80;1.25;;;;;;;;;;10387200;28;20499;-80
2023/10/17 08:01:33;;;;;;;2.15;1.45;;;;;;;;;;10388177;28;20864;-80
2023/10/17 08:06:37;;;;;;;1.60;1.20;;;;;;;;;;10393457;28;20433;-80
2023/10/17 08:11:41;;;;;;;3.08;1.30;;;;;;;;;;10391622;28;20425;-80
2023/10/17 08:16:46;;;;;;;3.05;1.20;;;;;;;;;;10394655;28;20928;-80
2023/10/17 08:22:10;;;;;;;1.67;1.23;;;;;;;;;;10388631;28;20461;-79
2023/10/17 08:27:41;;;;;;;1.45;0.98;;;;;;;;;;10387028;28;20417;-80
2023/10/17 08:32:54;;;;;;;2.30;1.20;;;;;;;;;;10384146;28;20496;-80
2023/10/17 08:37:59;;;;;;;1.42;0.93;;;;;;;;;;10387717;28;20922;-80
2023/10/17 08:43:10;;;;;;;1.92;1.00;;;;;;;;;;10390158;28;20458;-79
2023/10/17 08:48:14;;;;;;;2.20;0.80;;;;;;;;;;10403637;28;20433;-80
2023/10/17 08:53:20;;;;;;;1.47;0.70;;;;;;;;;;10388230;28;20475;-79
2023/10/17 08:58:32;;;;;;;1.45;0.80;;;;;;;;;;10384977;28;20828;-80
2023/10/17 09:03:41;;;;;;;1.57;0.70;;;;;;;;;;10393842;28;20468;-80
2023/10/17 09:08:52;;;;;;;1.50;0.70;;;;;;;;;;10393644;28;20407;-80
2023/10/17 09:19:25;;;;;;;2.83;1.10;;;;;;;;;;10372944;28;20854;-80
2023/10/17 09:24:32;;;;;;;1.40;0.80;;;;;;;;;;10391978;28;20509;-80
2023/10/17 09:29:45;;;;;;;8.98;2.00;;;;;;;;;;10392663;28;20972;-80
2023/10/17 09:34:49;;;;;;;2.25;1.23;;;;;;;;;;10388798;28;20429;-81
2023/10/17 09:39:52;;;;;;;2.30;1.20;;;;;;;;;;10379447;28;20874;-80
2023/10/17 09:44:56;;;;;;;2.38;1.10;;;;;;;;;;10383013;28;20450;-80
2023/10/17 09:50:03;;;;;;;1.25;1.10;;;;;;;;;;10380970;28;20465;-80
2023/10/17 09:55:09;;;;;;;4.50;1.05;;;;;;;;;;10387487;28;20447;-80
2023/10/17 10:00:27;;;;;;;5.28;1.52;;;;;;;;;;10382939;28;20486;-80
2023/10/17 10:05:29;;;;;;;4.13;1.55;;;;;;;;;;10385199;28;20467;-79
2023/10/17 10:10:55;;;;;;;2.00;1.10;;;;;;;;;;10386280;28;20445;-80
2023/10/17 10:16:01;;;;;;;2.67;1.23;;;;;;;;;;10381479;28;20539;-80
2023/10/17 10:21:04;;;;;;;3.15;1.40;;;;;;;;;;10389534;28;20405;-80
2023/10/17 10:26:16;;;;;;;1.60;1.20;;;;;;;;;;10391268;28;20454;-80
2023/10/17 10:31:38;;;;;;;2.05;1.83;;;;;;;;;;10397222;28;20935;-79
2023/10/17 10:36:42;;;;;;;2.22;1.33;;;;;;;;;;10385503;28;20959;-80
2023/10/17 10:42:01;;;;;;;3.30;1.55;;;;;;;;;;10384551;28;20407;-80
2023/10/17 10:47:07;;;;;;;3.10;1.50;;;;;;;;;;10384240;28;20780;-80
2023/10/17 10:52:09;;;;;;;4.82;1.30;;;;;;;;;;10390378;28;20489;-80
2023/10/17 10:57:13;;;;;;;4.75;2.95;;;;;;;;;;10381744;28;20485;-80
2023/10/17 11:02:17;;;;;;;2.57;1.80;;;;;;;;;;10384587;28;20450;-79
2023/10/17 11:07:23;;;;;;;3.00;1.37;;;;;;;;;;10374566;28;20434;-80
2023/10/17 11:12:25;;;;;;;3.42;1.20;;;;;;;;;;10370038;28;20507;-80
2023/10/17 11:17:29;;;;;;;4.13;1.33;;;;;;;;;;10373230;28;20444;-79
2023/10/17 11:22:32;;;;;;;1.83;1.40;;;;;;;;;;10378753;28;20917;-81
2023/10/17 11:27:39;;;;;;;2.10;1.40;;;;;;;;;;10388165;28;20450;-80
2023/10/17 11:32:45;;;;;;;2.47;1.30;;;;;;;;;;10391160;28;20449;-80
2023/10/17 11:37:47;;;;;;;2.72;1.52;;;;;;;;;;10393828;28;20847;-80
2023/10/17 11:42:53;;;;;;;2.40;1.50;;;;;;;;;;10377826;28;20447;-80
2023/10/17 11:47:57;;;;;;;5.13;2.00;;;;;;;;;;10389476;28;20451;-80
2023/10/17 11:53:10;;;;;;;3.55;1.50;;;;;;;;;;10386055;28;20442;-80
2023/10/17 11:58:22;;;;;;;4.30;1.60;;;;;;;;;;10383445;28;20433;-80
2023/10/17 12:03:27;;;;;;;3.70;1.50;;;;;;;;;;10385004;28;20535;-80
2023/10/17 12:08:30;;;;;;;4.50;1.60;;;;;;;;;;10389846;28;20414;-81
2023/10/17 12:13:34;;;;;;;4.60;1.85;;;;;;;;;;10389303;28;20896;-80
2023/10/17 12:18:37;;;;;;;2.28;1.55;;;;;;;;;;10390511;28;20454;-81
2023/10/17 12:23:40;;;;;;;3.30;1.30;;;;;;;;;;10392653;28;20458;-79
2023/10/17 12:28:43;;;;;;;3.40;1.60;;;;;;;;;;10397958;28;20901;-80
2023/10/17 12:33:47;;;;;;;3.47;1.73;;;;;;;;;;10400041;28;20462;-80
2023/10/17 12:38:50;;;;;;;2.65;1.40;;;;;;;;;;10397316;28;20463;-80
2023/10/17 12:43:52;;;;;;;2.50;1.60;;;;;;;;;;10379017;28;20563;-80
2023/10/17 12:48:56;;;;;;;2.97;1.60;;;;;;;;;;10376253;28;20446;-80
2023/10/17 12:53:58;;;;;;;2.47;1.50;;;;;;;;;;10380175;28;20451;-81
2023/10/17 12:59:00;;;;;;;2.60;1.83;;;;;;;;;;10379129;28;20504;-80
2023/10/17 13:04:07;;;;;;;3.28;1.65;;;;;;;;;;10373927;28;20458;-81
2023/10/17 13:09:11;;;;;;;3.93;1.73;;;;;;;;;;10385589;28;20455;-81
2023/10/17 13:14:13;;;;;;;4.25;2.00;;;;;;;;;;10385085;28;20974;-80
2023/10/17 13:19:18;;;;;;;3.00;2.10;;;;;;;;;;10377963;28;20443;-80
2023/10/17 13:24:20;;;;;;;2.53;1.87;;;;;;;;;;10377507;28;20458;-80
2023/10/17 13:29:23;;;;;;;4.10;1.90;;;;;;;;;;10383052;28;20439;-81
2023/10/17 13:34:28;;;;;;;8.30;2.33;;;;;;;;;;10380289;28;20992;-81
2023/10/17 13:39:31;;;;;;;2.97;2.07;;;;;;;;;;10377138;28;20874;-80
2023/10/17 13:44:34;;;;;;;4.70;2.30;;;;;;;;;;10382752;28;20540;-80
2023/10/17 13:49:38;;;;;;;4.17;2.17;;;;;;;;;;10380108;28;20442;-80
2023/10/17 13:54:41;;;;;;;3.75;2.25;;;;;;;;;;10395539;28;20403;-80
2023/10/17 13:59:47;;;;;;;4.63;2.20;;;;;;;;;;10381468;28;20477;-81
2023/10/17 14:04:52;;;;;;;4.13;2.33;;;;;;;;;;10380508;28;20534;-81
2023/10/17 14:09:57;;;;;;;3.30;2.10;;;;;;;;;;10382003;28;20454;-80
2023/10/17 14:15:00;;;;;;;4.73;2.30;;;;;;;;;;10378249;28;20451;-81
2023/10/17 14:20:14;;;;;;;4.60;2.30;;;;;;;;;;10378653;28;20451;-80
2023/10/17 14:26:00;;;;;;;5.03;2.35;;;;;;;;;;10375464;28;20481;-81
2023/10/17 14:30:40;;;;;;;4.13;2.20;;;;;;;;;;10377821;28;20449;-81
2023/10/17 14:35:44;;;;;;;5.35;2.47;;;;;;;;;;10372429;28;20454;-80
2023/10/17 14:40:46;;;;;;;3.33;2.10;;;;;;;;;;10378072;28;20407;-81
2023/10/17 14:45:49;;;;;;;3.97;2.30;;;;;;;;;;10375737;28;20871;-80
2023/10/17 14:50:52;;;;;;;4.03;2.07;;;;;;;;;;10371920;28;20455;-80
2023/10/17 14:55:58;;;;;;;5.67;2.10;;;;;;;;;;10374259;28;20480;-80
2023/10/17 15:01:00;;;;;;;5.07;2.20;;;;;;;;;;10379014;28;20491;-81
2023/10/17 15:06:06;;;;;;;4.68;2.35;;;;;;;;;;10378681;28;20846;-80
2023/10/17 15:11:10;;;;;;;4.05;2.30;;;;;;;;;;10370268;28;20489;-80
2023/10/17 15:16:17;;;;;;;4.67;2.33;;;;;;;;;;10375264;28;20483;-79
2023/10/17 15:21:21;;;;;;;4.00;2.10;;;;;;;;;;10380465;28;20453;-81
2023/10/17 15:26:25;;;;;;;4.72;2.47;;;;;;;;;;10366741;28;20462;-80
2023/10/17 15:31:27;;;;;;;5.07;2.38;;;;;;;;;;10374476;28;20493;-81
2023/10/17 15:36:31;;;;;;;3.80;2.50;;;;;;;;;;10377077;28;20503;-80
2023/10/17 15:41:35;;;;;;;5.50;2.30;;;;;;;;;;10373977;28;20462;-79
2023/10/17 15:46:37;;;;;;;3.08;2.00;;;;;;;;;;10372213;28;20449;-80
2023/10/17 15:51:41;;;;;;;3.77;2.30;;;;;;;;;;10371801;28;21016;-84
2023/10/17 15:56:44;;;;;;;4.93;2.38;;;;;;;;;;10376827;28;20443;-81
2023/10/17 16:01:46;;;;;;;4.97;2.30;;;;;;;;;;10371392;28;20442;-80
2023/10/17 16:06:51;;;;;;;7.40;2.80;;;;;;;;;;10375487;28;20500;-81
2023/10/17 16:11:54;;;;;;;6.45;2.67;;;;;;;;;;10378981;28;20840;-80
2023/10/17 16:16:56;;;;;;;6.37;2.47;;;;;;;;;;10374057;28;20507;-81
2023/10/17 16:22:00;;;;;;;7.22;3.10;;;;;;;;;;10379795;28;20446;-80
2023/10/17 16:27:03;;;;;;;6.85;3.45;;;;;;;;;;10377841;28;20989;-81
2023/10/17 16:32:06;;;;;;;8.40;3.30;;;;;;;;;;10377361;28;20880;-81
2023/10/17 16:37:09;;;;;;;10.38;3.30;;;;;;;;;;10384570;28;20439;-80
2023/10/17 16:42:12;;;;;;;6.90;3.38;;;;;;;;;;10382208;28;20486;-80
2023/10/17 16:47:15;;;;;;;5.93;2.90;;;;;;;;;;10376122;28;20513;-79
2023/10/17 16:52:19;;;;;;;4.35;3.15;;;;;;;;;;10378945;28;20443;-80
2023/10/17 16:57:21;;;;;;;5.05;2.90;;;;;;;;;;10367212;28;20489;-80
2023/10/17 17:02:24;;;;;;;8.32;4.28;;;;;;;;;;10390074;28;20446;-81
2023/10/17 17:07:28;;;;;;;11.77;4.00;;;;;;;;;;10388665;28;20490;-81
2023/10/17 17:12:30;;;;;;;8.48;3.47;;;;;;;;;;10386228;28;20518;-80
2023/10/17 17:17:33;;;;;;;13.10;3.90;;;;;;;;;;10393353;28;20517;-82
2023/10/17 17:22:36;;;;;;;6.07;3.78;;;;;;;;;;10387692;28;21016;-82
2023/10/17 17:27:39;;;;;;;7.47;3.53;;;;;;;;;;10392175;28;20493;-80
2023/10/17 17:32:41;;;;;;;7.55;3.22;;;;;;;;;;10393181;28;20483;-81
2023/10/17 17:37:45;;;;;;;9.38;3.65;;;;;;;;;;10377428;28;20479;-79
2023/10/17 17:42:48;;;;;;;7.60;3.95;;;;;;;;;;10393205;28;20511;-79
2023/10/17 17:47:51;;;;;;;9.25;4.32;;;;;;;;;;10394281;28;20452;-79
2023/10/17 17:52:54;;;;;;;10.18;4.60;;;;;;;;;;10388190;28;20453;-79
2023/10/17 17:58:01;;;;;;;7.22;4.07;;;;;;;;;;10389977;28;20515;-78
2023/10/17 18:03:04;;;;;;;7.35;4.35;;;;;;;;;;10387058;28;20864;-79
2023/10/17 18:08:08;;;;;;;9.68;4.32;;;;;;;;;;10392271;28;20458;-79
2023/10/17 18:13:10;;;;;;;8.90;3.95;;;;;;;;;;10392185;28;21010;-79
2023/10/17 18:18:14;;;;;;;8.93;4.45;;;;;;;;;;10387400;28;20449;-79
2023/10/17 18:23:18;;;;;;;10.87;4.77;;;;;;;;;;10380894;28;20542;-79
2023/10/17 18:28:21;;;;;;;13.60;6.72;;;;;;;;;;10390877;28;20547;-79
2023/10/17 18:33:24;;;;;;;10.10;5.93;;;;;;;;;;10383443;28;20528;-80
2023/10/17 18:38:31;;;;;;;11.73;6.10;;;;;;;;;;10394055;28;20524;-79
2023/10/17 18:43:34;;;;;;;9.38;5.68;;;;;;;;;;10389845;28;20460;-79
2023/10/17 18:48:37;;;;;;;10.13;5.57;;;;;;;;;;10391977;28;20448;-79
2023/10/17 18:53:41;;;;;;;10.43;5.87;;;;;;;;;;10388888;28;20510;-79
2023/10/17 18:58:44;;;;;;;10.53;5.20;;;;;;;;;;10381235;28;20865;-79
2023/10/17 19:03:46;;;;;;;12.83;6.00;;;;;;;;;;10381373;28;20445;-79
2023/10/17 19:08:50;;;;;;;11.60;6.65;;;;;;;;;;10389653;28;20497;-80
2023/10/17 19:13:53;;;;;;;15.02;7.45;;;;;;;;;;10378147;28;20841;-79
2023/10/17 19:18:55;;;;;;;10.35;6.18;;;;;;;;;;10386440;28;20443;-80
2023/10/17 19:23:59;;;;;;;11.77;6.18;;;;;;;;;;10375558;28;21222;-80
2023/10/17 19:29:01;;;;;;;10.15;6.38;;;;;;;;;;10387560;28;20513;-80
2023/10/17 19:34:05;;;;;;;10.02;6.43;;;;;;;;;;10381079;28;20513;-80
2023/10/17 19:39:10;;;;;;;10.43;5.70;;;;;;;;;;10391375;28;20499;-81
2023/10/17 19:44:12;;;;;;;10.23;6.00;;;;;;;;;;10389209;28;20479;-81
2023/10/17 19:49:16;;;;;;;10.32;6.43;;;;;;;;;;10387876;28;20526;-80
2023/10/17 19:54:20;;;;;;;12.17;6.20;;;;;;;;;;10396741;28;20527;-81
2023/10/17 19:59:22;;;;;;;9.52;6.03;;;;;;;;;;10386919;28;20535;-80
2023/10/17 20:04:26;;;;;;;11.45;5.90;;;;;;;;;;10392859;28;20483;-80
2023/10/17 20:09:31;;;;;;;9.20;5.95;;;;;;;;;;10393371;28;20513;-80
2023/10/17 20:14:34;;;;;;;8.05;5.72;;;;;;;;;;10373733;28;20849;-81
2023/10/17 20:19:36;;;;;;;10.85;6.15;;;;;;;;;;10373059;28;20510;-80
2023/10/17 20:24:40;;;;;;;9.48;5.82;;;;;;;;;;10372769;28;20505;-80
2023/10/17 20:29:42;;;;;;;8.00;5.40;;;;;;;;;;10372958;28;20498;-80
2023/10/17 20:34:46;;;;;;;10.23;5.35;;;;;;;;;;10397929;28;20494;-80
2023/10/17 20:39:53;;;;;;;8.85;5.80;;;;;;;;;;10389020;28;20970;-84
2023/10/17 20:44:55;;;;;;;8.88;5.70;;;;;;;;;;10390019;28;20448;-82
2023/10/17 20:49:58;;;;;;;11.70;6.10;;;;;;;;;;10394120;28;20453;-82
2023/10/17 20:55:02;;;;;;;10.98;6.18;;;;;;;;;;10393640;28;20929;-82
2023/10/17 21:00:08;;;;;;;8.07;5.47;;;;;;;;;;10400859;28;20459;-82
2023/10/17 21:05:10;;;;;;;10.13;6.13;;;;;;;;;;10401946;28;20491;-82
2023/10/17 21:10:15;;;;;;;10.13;5.30;;;;;;;;;;10393590;28;20455;-80
2023/10/17 21:15:18;;;;;;;9.27;5.43;;;;;;;;;;10387907;28;20477;-82
2023/10/17 21:20:21;;;;;;;9.88;5.68;;;;;;;;;;10392339;28;20513;-82
2023/10/17 21:25:27;;;;;;;8.80;5.75;;;;;;;;;;10395710;28;20450;-82
2023/10/17 21:30:29;;;;;;;9.15;5.90;;;;;;;;;;10394891;28;20447;-82
2023/10/17 21:35:32;;;;;;;11.32;6.30;;;;;;;;;;10396990;28;20441;-81
2023/10/17 21:40:36;;;;;;;9.68;5.72;;;;;;;;;;10390596;28;20461;-81
2023/10/17 21:45:42;;;;;;;9.73;6.10;;;;;;;;;;10385058;28;20946;-82
2023/10/17 21:50:44;;;;;;;10.80;5.60;;;;;;;;;;10397083;28;20411;-82
2023/10/17 21:55:48;;;;;;;8.53;5.53;;;;;;;;;;10393010;28;20415;-80
2023/10/17 22:00:55;;;;;;;8.38;5.25;;;;;;;;;;10402342;28;20411;-81
2023/10/17 22:05:58;;;;;;;10.40;5.53;;;;;;;;;;10389453;28;20496;-80
2023/10/17 22:11:01;;;;;;;8.60;5.20;;;;;;;;;;10404487;28;20409;-80
2023/10/17 22:16:06;;;;;;;9.02;5.03;;;;;;;;;;10398687;28;20443;-81
2023/10/17 22:21:08;;;;;;;8.35;4.90;;;;;;;;;;10397398;28;20483;-80
2023/10/17 22:26:13;;;;;;;8.15;4.70;;;;;;;;;;10395957;28;20425;-80
2023/10/17 22:31:15;;;;;;;8.27;4.90;;;;;;;;;;10396015;28;20413;-80
2023/10/17 22:36:18;;;;;;;8.30;4.53;;;;;;;;;;10393793;28;20410;-80
2023/10/17 22:41:22;;;;;;;8.20;5.03;;;;;;;;;;10390608;28;20432;-81
2023/10/17 22:46:25;;;;;;;9.77;5.10;;;;;;;;;;10394747;28;20417;-80
2023/10/17 22:51:27;;;;;;;9.75;4.90;;;;;;;;;;10386564;28;20415;-79
2023/10/17 22:56:30;;;;;;;8.68;5.18;;;;;;;;;;10394919;28;20482;-80
2023/10/17 23:01:33;;;;;;;8.15;4.85;;;;;;;;;;10391089;28;20817;-80
2023/10/17 23:06:35;;;;;;;7.18;4.32;;;;;;;;;;10399464;28;20461;-80
2023/10/17 23:11:39;;;;;;;6.78;4.78;;;;;;;;;;10387668;28;20469;-80
2023/10/17 23:16:41;;;;;;;5.90;4.30;;;;;;;;;;10395973;28;20411;-80
2023/10/17 23:21:44;;;;;;;8.38;4.57;;;;;;;;;;10395468;28;20415;-80
2023/10/17 23:26:47;;;;;;;7.35;4.78;;;;;;;;;;10400002;28;20463;-80
2023/10/17 23:31:50;;;;;;;7.50;5.00;;;;;;;;;;10396237;28;20799;-80
2023/10/17 23:36:52;;;;;;;8.30;4.60;;;;;;;;;;10396054;28;20915;-79
2023/10/17 23:41:56;;;;;;;8.90;5.03;;;;;;;;;;10397916;28;20403;-80
2023/10/17 23:46:59;;;;;;;8.35;5.28;;;;;;;;;;10398468;28;20459;-80
2023/10/17 23:52:03;;;;;;;8.13;5.35;;;;;;;;;;10394118;28;20471;-80
2023/10/17 23:57:07;;;;;;;8.15;5.05;;;;;;;;;;10395830;28;20413;-80
